Dutch
Home     News     Corporate     Events & Tours     Flight ops     Crew centre      
My transavia virtual    Join us    Last logs    Who is flying    Software    Training    VRTS     
 

view flightdata
view flightplan
view OFP
view flightlog



flightdata:
pilot: Bjorn Schepers
flight: TRA1234
from: LEIB (Ibiza)
to: GMMX (Marrakech)
date: 10-12-2020
departure: 13:47z
arrival: 16:06z
duration: 1:56
aircraft: B738 (PHHSI)
distance: 697 NM
touchdown: -107 ft/m @ 132 KIAS



flightplan:
-(FPL-TRA1234-IS
-B738/M-SDE2E3FGIRWXY/LB1
-LEIB1342
-N0447F370 BAVER UM603 ALT UN851 MGA UM985 PIMOS UN869 MABAP
-GMMX0144 GMMZ
-PBN/A1B1D1O1S1 DOF/201210 REG/PHHSI EET/LECM0025 GMMM0054 SEL/GQBC RVR/200 OPR/TRA)



operational flightplan (OFP):
DISPATCH BRIEFING (TEL:
--------- --------- --------- --------- --------- --------- ---------  
PREDEPARTURE ATC CLEARANCE:
.
.
--------- --------- --------- --------- --------- --------- ---------  
OFP  1    10 DEC 20/13:27
                                    OBS  3016

TRA1234    C/S TRA5575  LEIB/IBZ   GMMX/RAK         CRZ SYS     CI 10
10 DEC 20  PH-HSI       1715/1715  1909/1914        GND DIST      692
           TAB:.....    CTOT:....  STA  1915        AIR DIST      692
                                                    AVG W/C         0
MAXIMUM    ZFW  62731  LAW  66360  TOW  75975       AVG ISA       M07
ESTIMATED  ZFW  57937  LAW  60597  TOW  64935       F-F FACTOR    0.0
ACTUAL     ZFW  .....  LAW  .....  TOW  .....
--------- --------- --------- --------- --------- --------- ---------
TRIP        4338   0144           .....  .....
CONT         217   0006           .....  .....
ALTN         808   0021  GMMZ     .....  .....  ....
FINAL       1060   0030           .....  .....
ADDNL        575   0016           .....  .....
TANKERING                  
PLN TOF     6423   0241
DIFF        ....   ....
PLN TOF     ....   ....  (CORRECTED)   
EXTRA          0   ....                  
TOF         6423   ....                 
TAXI         200   ....                  
BLOCK       7198   ....        
--------- --------- --------- --------- --------- --------- ---------
REASON EXTRA FUEL      MATRIX FUEL:
O ECN-ECONAMICAL     O TMP-TEMPORARILY      O ATC-AIR TRAFFIC CNTRL
O FOB-FUEL ON.BOARD  O MSC-MISCELLANEOUS    O FPC-FLIGHT PLN CORR
O WXR-WEATHER        O TEC-TECHNICAL        ACT.CI/CRZ USED: . . .   

--------- --------- --------- --------- --------- --------- ---------

ZFW ZFW 1000 : PLN TOF   XXXXX/TRIP XXXXX 00 MIN HOLD DEST: 0 EXTRA
ZFW ZFW-1000 : PLN TOF   XXXXX/TRIP XXXXX
--------- --------- --------- --------- --------- --------- ---------
COMMANDERS NAME:                           SIGNATURE:

--------- --------- --------- --------- --------- --------- ---------
FROM:  LEIB ELEV24       TO: GMMX ELEV1545       ALTN: GMMZ ELEV3782
ATC C/S     : TRA55TRA1234            AVG ISA : M07
CO-ROUTE    :                        AVG TT  :   
FMC-RES FUEL: 1868                   AVG W/C :    0
CRZ ALT     : FL370                  FL310
CI          : CI 10                  FL200     360/000
                                     FL100

LEIB/24  N0447F370 BAVE3E BAVER UM603 ALT UN851 MGA UM985 PIMOS
UN869 MABAP MABA4A GMMX/28

--------- --------- --------- --------- --------- --------- ---------
.
.
--------- --------- --------- --------- --------- --------- ---------
RVSM ALT CHECK:  FL:...... LEFT: ...... STBY: ...... RIGHT: ......

--------- --------- --------- --------- --------- --------- ---------
DESTINATION ALTERNATE GMMZ
--------- --------- --------- --------- --------- --------- ---------

--------- --------- --------- --------- --------- --------- ---------
--------- --------- --------- --------- --------- --------- ---------
ALTERNATE SUMMARY
--------- --------- --------- --------- --------- --------- ---------
      ALTN        DIST   LVL       WC TIME  FUEL VIA
      GMMZ/30       85  FL170    0 0019   808 MAK DCT OZT
INFO/GMMI/34       93  FL150    0 0021   808 MAGA4D MAGAV B11 ESS
INFO/GMAD/27      120  FL190    0 0025   979 LISR4D LISRA UG850
                                           OLOMA OLOM2A
INFO/GMMN/35R     125  FL200    0 0026  1025 MABA4D MABAP UR722
                                           FOBAC FOBA1A
--------- --------- --------- --------- --------- --------- ---------

-(FPL-TRA1234-IS
-B738/M-SDE2E3FGIRWXY/LB1
-LEIB1342
-N0447F370 BAVER UM603 ALT UN851 MGA UM985 PIMOS UN869 MABAP
-GMMX0144 GMMZ
-PBN/A1B1D1O1S1 DOF/201210 REG/PHHSI EET/LECM0025 GMMM0054 SEL/GQBC RVR/200 OPR/TRA)

WEATHER BRIEFING - GENERATED 10 DEC 2020 13:27 UTC
--------------------------------------------------------------------------------

LEIB GMMX GMMZ GMMI GMAD GMMN

--------------------------------------------------------------------------------
ORIGIN: LEIB (IBIZA)
--------------------------------------------------------------------------------
LEIB 101300Z 25015G26KT 9999 FEW030 17/11 Q1007 NOSIG

LEIB 091400Z 0915/1015 30015KT CAVOK TX17/1012Z TN11/1006Z
      TEMPO 0915/0917 30015G25KT
      BECMG 1000/1002 26020KT
      TEMPO 1001/1015 26020G30KT
      TEMPO 1006/1012 4000 RA


--------------------------------------------------------------------------------
DESTINATION: GMMX (MARRAKECH)
--------------------------------------------------------------------------------
GMMX 101300Z 06004KT 360V110 8000 NSC 18/10 Q1024 NOSIG

GMMX 101100Z 1012/1118 02006KT 8000 NSC


--------------------------------------------------------------------------------
ALTERNATE: GMMZ (OUARZAZATE)
--------------------------------------------------------------------------------
GMMZ 101300Z VRB02KT CAVOK 17/M05 Q1024 NOSIG

GMMZ 101100Z 1012/1118 VRB02KT CAVOK
      TEMPO 1016/1020 30014KT


--------------------------------------------------------------------------------
ALTERNATE: GMMI (ESSAOUIRA)
--------------------------------------------------------------------------------
GMMI 101200Z 04013KT 7000 NSC 20/14 Q1024 NOSIG

GMMI 071100Z 0712/0818 08009KT 8000 NSC=  GMMW 071100Z 0712/0818 21015KT 9999 FEW020
      BECMG 0714/0716 BKN030 PROB30
      TEMPO 0800/0818 24014G32KT
      BECMG 0802/0804 FEW020


--------------------------------------------------------------------------------
ALTERNATE: GMAD (AGADIR)
--------------------------------------------------------------------------------
GMAD 101300Z 28007KT 250V310 CAVOK 21/10 Q1021 NOSIG

GMAD 101100Z 1012/1118 28014KT CAVOK=  GMFF 101100Z 1012/1118 26016KT 9999 SCT026 SCT100
      BECMG 1018/1020 22006KT
      TEMPO 1019/1118 3000 RA
      BECMG 1102/1104 24010G30KT


--------------------------------------------------------------------------------
ALTERNATE: GMMN (CASABLANCA)
--------------------------------------------------------------------------------
GMMN 101300Z 28006KT 240V320 9999 BKN023 18/15 Q1025 NOSIG

GMMN 101100Z 1012/1118 30008KT 8000 BKN020
      BECMG 1022/1100 4000 BR BKN006
      TEMPO 1100/1108 0400 FG BKN002
      BECMG 1108/1109 8000 BKN016


NOTAM BRIEFING - GENERATED 10 DEC 2020 13:27 UTC
--------------------------------------------------------------------------------

LEIB GMMX GMMZ GMMZ GMMI GMAD GMMN

--------------------------------------------------------------------------------
GLOBAL TRANSAVIA.COM VIRTUAL NOTAMS
--------------------------------------------------------------------------------
REF:NIL PLEASE CONTACT OPERATIONS IN CASE OF STRUCTURAL FLIGHTPLAN ERRORS ON FLIGHT-OPS@TRANSAVIA-VIRTUAL.COM
VALID:UFN

REF:NIL
PLEASE CHECK ACARS EVERY 10 MINUTES WHEN FLYING WITH SOUND OFF. AN NEW ACARS MESSAGE PRODUCE A SOUND SIGNAL UNTILL ITS READ. FLOWCONTROL DON'T RECEIVE MUCH REACTION ON OUTGOING ACARS MESSAGES ACCORDING FLIGHTSTATUS.
SOURCE: SPL/HV/OCC/
END VALID: UFN

REF:NIL
PLEASE CONTACT FLOWCONTROL IN CASE OF PROBLEMS WITH ROUTINGS
SOURCE: SPL/HV/OCC/
END VALID: UFN

REF:NIL
IN CASE OF ENGINE-OUT FLY V2 OR V2 20 MAX. UNTIL ABOVE MSA.
LEVEL-OFF AT AN ALTITUDE ROUNDED OFF TO THE FIRST 1000 FT OF THE HIGHEST MSA.
E.G: MSA EHAM; 1.7 AND 2.3 LEVEL-OFF 3000 FT. AFTER LANDING MAKE A REP TO OCC ON 131.975
SOURCE:SPL/HV/OCC
END VALID:UFN



flightlog:
Pilot : Bjorn Schepers
Flight: TRA1234
From  : LEIB Ibiza
To    : GMMX Marrakech

[FLIGHTLOG] 1.5.4
10-12-2020 13:36:15z, logging started
10-12-2020 13:42:19z, pos report: 000 KIAS, 00 028 ft, heading 018, winds 240 @ 21 kts
10-12-2020 13:47:32z, flaps set to 13%
10-12-2020 13:47:40z, flaps set to 25%
10-12-2020 13:47:44z, flaps set to 38%
10-12-2020 13:47:55z, deployed spoilers
10-12-2020 13:47:56z, retracted spoilers
10-12-2020 13:47:57z, parking brake released
10-12-2020 13:55:46z, take-off at 146 KIAS
10-12-2020 13:55:46z, pos report: 146 KIAS, 00 032 ft, heading 241, winds 240 @ 21 kts
10-12-2020 13:55:46z, flying OFFLINE
10-12-2020 13:55:46z, position: LEIB - Ibiza
10-12-2020 13:55:53z, retracted gear at 151 KIAS and 145 ft AGL
10-12-2020 13:57:08z, flaps set to 25%
10-12-2020 13:57:11z, flaps set to 13%
10-12-2020 13:57:20z, pos report: 197 KIAS, 03 383 ft, heading 246, winds 266 @ 30 kts
10-12-2020 13:57:51z, flaps set to 0%
10-12-2020 14:12:20z, pos report: 297 KIAS, 30 431 ft, heading 255, winds 334 @ 69 kts
10-12-2020 14:27:22z, pos report: 274 KIAS, 35 092 ft, heading 254, winds 346 @ 86 kts
10-12-2020 14:42:25z, pos report: 269 KIAS, 35 170 ft, heading 218, winds 357 @ 85 kts
10-12-2020 14:57:26z, pos report: 269 KIAS, 35 287 ft, heading 220, winds 013 @ 77 kts
10-12-2020 15:12:27z, pos report: 269 KIAS, 35 304 ft, heading 216, winds 018 @ 73 kts
10-12-2020 15:27:29z, pos report: 269 KIAS, 35 304 ft, heading 216, winds 018 @ 73 kts
10-12-2020 15:36:49z, overspeeding
10-12-2020 15:37:00z, recovered from overspeed
10-12-2020 15:42:30z, pos report: 305 KIAS, 11 054 ft, heading 211, winds 000 @ 10 kts
10-12-2020 15:56:52z, flaps set to 13%
10-12-2020 15:57:28z, flaps set to 25%
10-12-2020 15:57:31z, pos report: 213 KIAS, 03 161 ft, heading 094, winds 072 @ 06 kts
10-12-2020 15:58:00z, flaps set to 38%
10-12-2020 15:58:45z, flaps set to 50%
10-12-2020 16:00:07z, lowered gear at 169 KIAS and 1872 ft AGL
10-12-2020 16:00:09z, flaps set to 62%
10-12-2020 16:00:26z, flaps set to 75%
10-12-2020 16:00:51z, flaps set to 87%
10-12-2020 16:03:16z, touchdown: -107ft/m at 132 KIAS
10-12-2020 16:03:16z, pos report: 132 KIAS, 01 545 ft, heading 093, winds 052 @ 04 kts
10-12-2020 16:03:16z, flying OFFLINE
10-12-2020 16:03:16z, position: GMMX - Marrakech
10-12-2020 16:03:46z, retracted spoilers
10-12-2020 16:03:53z, flaps set to 75%
10-12-2020 16:03:57z, flaps set to 62%
10-12-2020 16:03:59z, flaps set to 50%
10-12-2020 16:04:02z, flaps set to 38%
10-12-2020 16:04:07z, flaps set to 25%
10-12-2020 16:04:11z, flaps set to 13%
10-12-2020 16:04:19z, flaps set to 0%
10-12-2020 16:06:53z, parking brake set
10-12-2020 16:08:24z, logging ended
10-12-2020 16:08:24z, this flight was flown offline

©2009-2021, transavia virtual. All rights reserved. This website is only meant for simulation purposes.
This website is not owned by transavia, nor is transavia responsible for the content of this website.